Time;durP1;ratioP1;P1;durP2;ratioP2;P2;SDS_P1;SDS_P2;PMS_P1;PMS_P2;Temp;Humidity;BMP_temperature;BMP_pressure;BME280_temperature;BME280_humidity;BME280_pressure;Samples;Min_cycle;Max_cycle;Signal;HPM_P1;HPM_P2
2023/09/21 00:01:28;;;;;;;3.35;1.80;;;;;;;25.94;45.58;100048.75;5112799;28;20092;-65
2023/09/21 00:03:57;;;;;;;4.40;2.00;;;;;;;25.93;45.44;100047.91;5113212;28;20039;-65
2023/09/21 00:06:27;;;;;;;3.28;1.80;;;;;;;25.93;45.83;100052.53;5112943;28;20048;-65
2023/09/21 00:08:56;;;;;;;3.85;1.90;;;;;;;25.92;45.56;100050.84;5112823;28;20128;-66
2023/09/21 00:11:24;;;;;;;3.80;1.90;;;;;;;25.89;45.37;100046.63;5112470;28;20103;-66
2023/09/21 00:13:52;;;;;;;3.28;2.00;;;;;;;25.90;45.93;100048.31;5111759;28;20046;-65
2023/09/21 00:16:25;;;;;;;3.47;1.85;;;;;;;25.88;45.77;100044.94;5111819;28;20040;-65
2023/09/21 00:18:54;;;;;;;3.05;1.90;;;;;;;25.88;45.84;100055.88;5112057;28;20200;-65
2023/09/21 00:21:23;;;;;;;3.00;1.70;;;;;;;25.87;45.73;100053.34;5111792;28;20131;-66
2023/09/21 00:23:53;;;;;;;4.03;1.90;;;;;;;25.86;45.50;100051.63;5111851;28;20127;-65
2023/09/21 00:26:27;;;;;;;3.60;1.63;;;;;;;25.85;45.86;100056.25;5111830;28;20044;-65
2023/09/21 00:28:55;;;;;;;5.35;1.98;;;;;;;25.84;45.39;100051.81;5111692;28;20522;-65
2023/09/21 00:31:24;;;;;;;2.85;1.77;;;;;;;25.83;45.57;100052.03;5111615;28;20449;-65
2023/09/21 00:33:54;;;;;;;3.95;1.95;;;;;;;25.82;45.96;100055.81;5111534;28;20043;-65
2023/09/21 00:36:24;;;;;;;3.70;1.90;;;;;;;25.80;45.45;100049.69;5111685;28;20089;-66
2023/09/21 00:38:55;;;;;;;2.97;1.90;;;;;;;25.79;45.42;100050.75;5111547;28;20071;-65
2023/09/21 00:41:25;;;;;;;4.10;1.90;;;;;;;25.79;45.40;100042.53;5111390;28;20396;-65
2023/09/21 00:43:54;;;;;;;4.22;2.13;;;;;;;25.77;45.83;100037.28;5111618;28;20128;-65
2023/09/21 00:46:22;;;;;;;3.40;2.00;;;;;;;25.78;45.80;100046.31;5111530;28;20047;-65
2023/09/21 00:48:53;;;;;;;3.15;1.80;;;;;;;25.76;45.67;100037.47;5111799;28;20130;-66
2023/09/21 00:51:22;;;;;;;3.38;1.90;;;;;;;25.75;45.61;100041.22;5111338;28;20101;-65
2023/09/21 00:53:56;;;;;;;3.40;1.70;;;;;;;25.74;46.04;100036.81;5111332;28;20088;-65
2023/09/21 00:56:27;;;;;;;5.00;2.05;;;;;;;25.73;45.86;100029.66;5111351;28;20043;-65
2023/09/21 00:58:57;;;;;;;2.75;1.70;;;;;;;25.69;46.32;100027.31;5110336;28;20047;-65
2023/09/21 01:01:27;;;;;;;4.20;1.90;;;;;;;25.69;45.76;100024.56;5111382;28;20058;-65
2023/09/21 01:04:01;;;;;;;3.35;1.80;;;;;;;25.69;46.44;100030.03;5111390;28;20044;-65
2023/09/21 01:06:31;;;;;;;3.50;1.73;;;;;;;25.69;46.09;100029.19;5110927;28;20047;-65
2023/09/21 01:09:03;;;;;;;4.38;2.10;;;;;;;25.67;45.98;100029.38;5111413;28;20044;-65
2023/09/21 01:11:36;;;;;;;4.60;1.73;;;;;;;25.65;46.05;100023.25;5070875;28;1139717;-65
2023/09/21 01:14:05;;;;;;;3.75;1.83;;;;;;;25.65;46.17;100016.94;5094926;28;20280;-65
2023/09/21 01:16:34;;;;;;;3.78;2.13;;;;;;;25.63;46.29;100019.03;5111659;28;20500;-65
2023/09/21 01:19:03;;;;;;;3.55;1.92;;;;;;;25.62;45.88;100020.91;5111833;28;20079;-65
2023/09/21 01:21:38;;;;;;;2.97;1.73;;;;;;;25.61;45.81;100013.78;5111996;28;20151;-66
2023/09/21 01:24:11;;;;;;;3.80;1.80;;;;;;;25.60;45.87;100017.53;5111845;28;20055;-65
2023/09/21 01:26:40;;;;;;;3.50;1.90;;;;;;;25.60;45.58;100019.44;5111861;28;20428;-65
2023/09/21 01:29:09;;;;;;;3.53;1.70;;;;;;;25.59;46.03;100013.13;5111871;28;20046;-65
2023/09/21 01:31:38;;;;;;;3.38;1.75;;;;;;;25.58;46.04;100010.59;5111669;28;20040;-65
2023/09/21 01:34:07;;;;;;;3.40;1.90;;;;;;;25.56;45.96;100007.19;5111973;28;20044;-65
2023/09/21 01:36:36;;;;;;;3.42;1.60;;;;;;;25.56;45.77;100008.03;5111984;28;20047;-65
2023/09/21 01:39:08;;;;;;;2.55;1.50;;;;;;;25.55;45.93;100010.97;5111894;28;20075;-65
2023/09/21 01:41:38;;;;;;;3.50;2.00;;;;;;;25.52;46.21;100011.38;5111748;28;20047;-65
2023/09/21 01:44:07;;;;;;;3.88;1.98;;;;;;;25.53;46.34;100013.91;5111543;28;20044;-65
2023/09/21 01:46:35;;;;;;;3.42;1.88;;;;;;;25.50;45.88;100006.09;5111681;28;20496;-65
2023/09/21 01:49:04;;;;;;;4.13;1.83;;;;;;;25.51;45.73;100006.94;5111784;28;20039;-65
2023/09/21 01:51:34;;;;;;;3.28;1.60;;;;;;;25.51;45.86;100009.69;5111705;28;20052;-65
2023/09/21 01:54:06;;;;;;;3.25;2.00;;;;;;;25.49;46.07;100007.16;5111676;28;20426;-65
2023/09/21 01:56:40;;;;;;;3.25;1.80;;;;;;;25.48;46.27;99999.13;5111499;28;20039;-65
2023/09/21 01:59:08;;;;;;;2.65;1.50;;;;;;;25.47;45.81;100000.16;5111778;28;20054;-66
2023/09/21 02:01:36;;;;;;;3.67;1.75;;;;;;;25.46;46.12;99996.59;5111082;28;20504;-65
2023/09/21 02:04:04;;;;;;;3.10;1.77;;;;;;;25.44;45.92;99990.50;5111445;28;20504;-65
2023/09/21 02:06:33;;;;;;;2.72;1.67;;;;;;;25.43;46.06;99994.25;5111494;28;20086;-66
2023/09/21 02:09:05;;;;;;;3.15;1.77;;;;;;;25.41;45.72;99993.63;5111302;28;20044;-65
2023/09/21 02:11:33;;;;;;;3.30;1.60;;;;;;;25.42;46.06;99995.31;5115029;28;20058;-66
2023/09/21 02:14:05;;;;;;;3.75;1.77;;;;;;;25.39;45.66;99984.78;5115308;28;20725;-65
2023/09/21 02:16:34;;;;;;;;;;;;;;;25.40;46.00;99986.47;5115647;28;20126;-65
2023/09/21 02:19:04;;;;;;;3.25;1.77;;;;;;;25.38;46.33;99983.94;5115265;28;19926;-65
2023/09/21 02:21:34;;;;;;;3.58;1.80;;;;;;;25.37;45.89;99984.09;5114819;28;20052;-66
2023/09/21 02:24:04;;;;;;;3.65;1.80;;;;;;;25.35;46.04;99975.28;5115000;28;20141;-64
2023/09/21 02:26:37;;;;;;;4.10;1.85;;;;;;;25.35;46.06;99975.28;5114820;28;20054;-65
2023/09/21 02:29:06;;;;;;;4.22;1.90;;;;;;;25.35;46.31;99975.28;5114863;28;20130;-64
2023/09/21 02:31:37;;;;;;;3.47;1.70;;;;;;;25.32;45.94;99972.94;5114753;28;20040;-64
2023/09/21 02:34:05;;;;;;;2.70;1.60;;;;;;;25.30;46.09;99969.56;5114882;28;20059;-65
2023/09/21 02:36:36;;;;;;;4.40;1.90;;;;;;;25.32;46.30;99967.47;5114608;28;20040;-65
2023/09/21 02:39:10;;;;;;;3.50;1.90;;;;;;;25.29;45.95;99963.28;5114732;28;20048;-66
2023/09/21 02:41:39;;;;;;;3.53;1.77;;;;;;;25.29;46.32;99962.44;5114630;28;20412;-66
2023/09/21 02:44:09;;;;;;;3.67;1.70;;;;;;;25.29;46.14;99973.34;5114491;28;20409;-66
2023/09/21 02:46:37;;;;;;;4.07;1.90;;;;;;;25.28;46.21;99966.16;5114527;28;20418;-65
2023/09/21 02:49:06;;;;;;;4.65;1.83;;;;;;;25.26;45.92;99962.78;5114254;28;20048;-65
2023/09/21 02:51:34;;;;;;;3.40;1.60;;;;;;;25.25;46.15;99967.41;5114328;28;20484;-66
2023/09/21 02:54:07;;;;;;;3.28;1.88;;;;;;;25.25;46.05;99963.84;5114457;28;20416;-65
2023/09/21 02:56:35;;;;;;;3.42;1.70;;;;;;;25.23;46.11;99963.19;5114225;28;20047;-65
2023/09/21 02:59:05;;;;;;;3.33;1.80;;;;;;;25.22;46.17;99966.97;5113927;28;20044;-65
2023/09/21 03:01:35;;;;;;;4.18;1.70;;;;;;;25.19;46.40;99957.28;5114214;28;20141;-65
2023/09/21 03:04:04;;;;;;;2.83;1.75;;;;;;;25.19;46.32;99959.13;5114269;28;20051;-65
2023/09/21 03:06:33;;;;;;;5.05;2.00;;;;;;;25.19;46.00;99961.88;5114215;28;20510;-65
2023/09/21 03:09:02;;;;;;;3.15;1.70;;;;;;;25.19;46.49;99960.00;5114064;28;20085;-65
2023/09/21 03:11:30;;;;;;;5.05;1.90;;;;;;;25.16;46.33;99952.19;5113938;28;20059;-65
2023/09/21 03:14:04;;;;;;;3.50;1.98;;;;;;;25.18;46.33;99954.72;5113925;28;20055;-65
2023/09/21 03:16:38;;;;;;;3.97;1.70;;;;;;;25.15;46.34;99955.13;5114084;28;20050;-65
2023/09/21 03:19:08;;;;;;;4.03;1.70;;;;;;;25.15;46.22;99955.97;5114019;28;20040;-64
2023/09/21 03:21:36;;;;;;;6.88;1.80;;;;;;;25.13;46.32;99955.31;5112797;28;20143;-65
2023/09/21 03:24:07;;;;;;;4.38;2.20;;;;;;;25.13;46.69;99952.59;5113720;28;20070;-66
2023/09/21 03:26:35;;;;;;;3.33;1.70;;;;;;;25.12;46.89;99961.81;5113821;28;20134;-64
2023/09/21 03:29:08;;;;;;;3.30;1.80;;;;;;;25.11;46.75;99960.97;5113708;28;20043;-65
2023/09/21 03:31:38;;;;;;;;;;;;;;;25.10;47.26;99958.44;5114064;28;20404;-66
2023/09/21 03:34:06;;;;;;;3.22;1.80;;;;;;;25.08;46.92;99949.59;5113603;28;20272;-65
2023/09/21 03:36:37;;;;;;;3.67;2.08;;;;;;;25.07;47.01;99947.91;5113286;28;20047;-65
2023/09/21 03:39:09;;;;;;;4.05;1.92;;;;;;;25.06;46.79;99941.59;5113245;28;20615;-65
2023/09/21 03:41:38;;;;;;;3.60;1.83;;;;;;;25.05;47.05;99939.91;5113375;28;20047;-65
2023/09/21 03:44:07;;;;;;;3.35;1.80;;;;;;;25.06;47.20;99947.06;5113430;28;20368;-64
2023/09/21 03:46:35;;;;;;;3.88;2.00;;;;;;;25.04;46.92;99942.84;5113405;28;20127;-65
2023/09/21 03:49:05;;;;;;;4.53;2.17;;;;;;;25.05;46.90;99939.06;5113476;28;20408;-65
2023/09/21 03:51:36;;;;;;;3.90;2.10;;;;;;;25.03;46.96;99936.53;5113088;28;20043;-65
2023/09/21 03:54:05;;;;;;;4.28;2.20;;;;;;;25.02;46.88;99934.84;5113156;28;20048;-65
2023/09/21 03:56:36;;;;;;;4.60;2.03;;;;;;;25.00;46.78;99936.91;5113282;28;20075;-66
2023/09/21 03:59:06;;;;;;;3.50;1.83;;;;;;;25.01;46.75;99932.28;5113133;28;20401;-64
2023/09/21 04:01:37;;;;;;;4.07;1.83;;;;;;;24.98;46.99;99919.84;5112878;28;20097;-65
2023/09/21 04:04:17;;;;;;;5.05;1.95;;;;;;;24.99;46.94;99921.53;5112935;28;20058;-65
2023/09/21 04:06:46;;;;;;;3.28;2.03;;;;;;;24.98;47.11;99927.19;5113128;28;20054;-66
2023/09/21 04:09:18;;;;;;;3.60;1.90;;;;;;;24.97;47.06;99915.44;5112796;28;20113;-65
2023/09/21 04:11:46;;;;;;;3.83;2.00;;;;;;;24.97;46.93;99920.06;5112694;28;20058;-65
2023/09/21 04:14:15;;;;;;;3.35;1.77;;;;;;;24.97;47.14;99922.78;5112831;28;20044;-65
2023/09/21 04:16:46;;;;;;;4.07;1.70;;;;;;;24.93;46.88;99914.16;5112627;28;20099;-66
2023/09/21 04:19:16;;;;;;;3.97;1.80;;;;;;;24.94;47.00;99918.56;5112937;28;20049;-66
2023/09/21 04:21:46;;;;;;;4.05;2.15;;;;;;;24.94;47.09;99915.00;5112631;28;20071;-65
2023/09/21 04:24:17;;;;;;;3.20;1.90;;;;;;;24.93;47.22;99919.59;5112691;28;20047;-65
2023/09/21 04:26:46;;;;;;;2.97;1.70;;;;;;;24.91;47.06;99927.13;5112525;28;20047;-65
2023/09/21 04:29:15;;;;;;;4.05;2.00;;;;;;;24.91;47.16;99927.13;5112393;28;20055;-65
2023/09/21 04:31:47;;;;;;;3.83;2.15;;;;;;;24.92;47.18;99922.53;5112703;28;20144;-65
2023/09/21 04:34:17;;;;;;;3.25;1.70;;;;;;;24.91;47.27;99920.84;5112156;28;20051;-65
2023/09/21 04:36:47;;;;;;;3.25;1.80;;;;;;;24.89;47.07;99918.28;5112561;28;20138;-65
2023/09/21 04:39:15;;;;;;;3.88;1.90;;;;;;;24.89;47.20;99921.00;5112323;28;20122;-65
2023/09/21 04:41:44;;;;;;;3.58;1.80;;;;;;;24.88;47.39;99918.47;5111919;28;20605;-65
2023/09/21 04:44:12;;;;;;;4.18;2.20;;;;;;;24.88;47.00;99924.78;5112248;28;20044;-66
2023/09/21 04:46:43;;;;;;;5.78;2.10;;;;;;;24.85;46.95;99914.25;5112378;28;20044;-65
2023/09/21 04:49:11;;;;;;;3.55;1.88;;;;;;;24.86;47.45;99915.94;5112150;28;20043;-65
2023/09/21 04:51:41;;;;;;;3.67;2.05;;;;;;;24.86;47.19;99907.75;5112113;28;20104;-65
2023/09/21 04:54:10;;;;;;;4.40;1.98;;;;;;;24.86;47.38;99906.91;5111773;28;20393;-65
2023/09/21 04:56:39;;;;;;;3.35;1.85;;;;;;;24.86;47.48;99907.75;5112232;28;20411;-65
2023/09/21 04:59:07;;;;;;;4.70;1.98;;;;;;;24.84;47.65;99918.03;5112200;28;20070;-64
2023/09/21 05:01:36;;;;;;;4.03;1.90;;;;;;;24.84;47.50;99928.94;5111962;28;20086;-65
2023/09/21 05:04:04;;;;;;;4.60;2.10;;;;;;;24.82;47.29;99933.75;5112046;28;20040;-65
2023/09/21 05:06:33;;;;;;;3.70;1.90;;;;;;;24.82;47.28;99941.94;5112005;28;20412;-65
2023/09/21 05:09:04;;;;;;;3.28;1.77;;;;;;;24.82;47.49;99942.78;5111785;28;20543;-65
2023/09/21 05:11:38;;;;;;;4.25;1.98;;;;;;;24.80;47.28;99947.59;5111545;28;20048;-65
2023/09/21 05:14:07;;;;;;;4.90;2.00;;;;;;;24.79;47.58;99940.41;5111951;28;20051;-65
2023/09/21 05:16:37;;;;;;;4.03;1.60;;;;;;;24.79;47.23;99937.69;5111682;28;20048;-65
2023/09/21 05:19:06;;;;;;;3.67;2.00;;;;;;;24.78;47.26;99930.53;5111846;28;20039;-65
2023/09/21 05:21:36;;;;;;;3.75;2.00;;;;;;;24.78;47.25;99932.41;5111580;28;20123;-65
2023/09/21 05:24:07;;;;;;;4.35;2.13;;;;;;;24.77;47.52;99936.19;5111437;28;20043;-65
2023/09/21 05:26:38;;;;;;;6.13;2.80;;;;;;;24.77;47.51;99938.91;5111933;28;20131;-67
2023/09/21 05:29:12;;;;;;;4.72;2.28;;;;;;;24.77;47.29;99930.75;5112308;28;20408;-66
2023/09/21 05:31:41;;;;;;;4.30;1.83;;;;;;;24.75;47.48;99938.28;5111583;28;20066;-66
2023/09/21 05:34:10;;;;;;;5.15;2.40;;;;;;;24.75;47.55;99941.00;5111498;28;20055;-66
2023/09/21 05:36:38;;;;;;;4.07;2.13;;;;;;;24.75;47.62;99949.19;5111636;28;20048;-66
2023/09/21 05:39:14;;;;;;;4.10;2.15;;;;;;;24.75;47.75;99949.19;5111403;28;20044;-68
2023/09/21 05:41:42;;;;;;;4.22;2.10;;;;;;;24.74;47.50;99936.59;5111492;28;20083;-66
2023/09/21 05:44:11;;;;;;;4.53;2.15;;;;;;;24.75;47.76;99938.28;5111271;28;20397;-66
2023/09/21 05:46:40;;;;;;;5.28;2.15;;;;;;;24.73;47.75;99945.81;5096598;28;20040;-66
2023/09/21 05:49:09;;;;;;;4.80;2.30;;;;;;;24.73;47.89;99940.34;5115395;28;20048;-68
2023/09/21 05:51:39;;;;;;;3.72;2.00;;;;;;;24.73;48.06;99948.53;5115434;28;20410;-67
2023/09/21 05:54:09;;;;;;;5.68;2.10;;;;;;;24.73;48.01;99938.47;5115186;28;20655;-65
2023/09/21 05:56:37;;;;;;;4.75;2.25;;;;;;;24.71;47.86;99934.25;5115033;28;20059;-66
2023/09/21 05:59:06;;;;;;;4.32;2.10;;;;;;;24.73;48.09;99951.25;5105380;28;20075;-66
2023/09/21 06:01:35;;;;;;;6.15;2.30;;;;;;;24.71;48.05;99937.81;5097823;28;20047;-65
2023/09/21 06:04:03;;;;;;;4.57;2.35;;;;;;;24.70;47.72;99936.09;5094438;28;20052;-65
2023/09/21 06:06:34;;;;;;;4.30;2.33;;;;;;;24.72;48.10;99938.66;5094648;28;20055;-65
2023/09/21 06:09:02;;;;;;;4.85;2.22;;;;;;;24.71;47.98;99937.81;5105330;28;20534;-65
2023/09/21 06:11:33;;;;;;;4.40;2.10;;;;;;;24.71;47.91;99943.28;5114733;28;20408;-66
2023/09/21 06:16:43;;;;;;;5.70;2.47;;;;;;;24.71;48.24;99954.19;5112314;28;20492;-69
2023/09/21 06:19:12;;;;;;;5.10;2.30;;;;;;;24.71;47.83;99958.78;5114263;28;20586;-67
2023/09/21 06:21:45;;;;;;;5.18;2.15;;;;;;;24.70;47.99;99951.63;5115023;28;20061;-65
2023/09/21 06:24:14;;;;;;;4.43;2.20;;;;;;;24.70;48.08;99946.16;5114820;28;20051;-67
2023/09/21 06:26:47;;;;;;;6.60;2.42;;;;;;;24.70;48.05;99946.16;5114150;28;20052;-66
2023/09/21 06:29:16;;;;;;;4.88;2.30;;;;;;;24.69;48.05;99949.94;5114502;28;20614;-65
2023/09/21 06:31:44;;;;;;;4.65;2.30;;;;;;;24.68;48.09;99942.78;5114568;28;20456;-66
2023/09/21 06:34:34;;;;;;;5.10;2.20;;;;;;;24.69;48.29;99939.03;5114468;28;20426;-69
2023/09/21 06:37:05;;;;;;;5.05;2.30;;;;;;;24.69;47.99;99939.03;5114197;28;20070;-67
2023/09/21 06:39:33;;;;;;;4.57;2.30;;;;;;;24.68;48.13;99937.34;5114426;28;20048;-68
2023/09/21 06:42:03;;;;;;;4.03;1.95;;;;;;;24.68;48.34;99934.63;5114453;28;20047;-71
2023/09/21 06:44:32;;;;;;;4.72;2.30;;;;;;;24.67;48.10;99928.31;5096471;28;20043;-70
2023/09/21 06:47:00;;;;;;;4.45;2.33;;;;;;;24.66;48.21;99926.63;5114561;28;20063;-66
2023/09/21 06:49:29;;;;;;;5.22;2.30;;;;;;;24.67;48.33;99924.75;5113932;28;20040;-67
2023/09/21 06:51:59;;;;;;;5.82;2.40;;;;;;;24.68;48.18;99923.69;5114089;28;20541;-67
2023/09/21 06:54:28;;;;;;;6.15;2.40;;;;;;;24.67;48.25;99911.94;5114053;28;20048;-67
2023/09/21 06:57:03;;;;;;;5.15;2.38;;;;;;;24.68;48.20;99910.91;5114015;28;20085;-67
2023/09/21 06:59:36;;;;;;;5.57;2.25;;;;;;;24.68;48.02;99900.00;5114047;28;20048;-66
2023/09/21 07:02:05;;;;;;;4.65;2.40;;;;;;;24.69;48.28;99900.84;5114276;28;20092;-67
2023/09/21 07:04:34;;;;;;;4.90;2.30;;;;;;;24.69;48.50;99895.41;5113976;28;20069;-66
2023/09/21 07:07:05;;;;;;;6.15;2.28;;;;;;;24.69;48.42;99898.13;5113752;28;20046;-67
2023/09/21 07:09:35;;;;;;;5.20;2.20;;;;;;;24.68;48.16;99893.72;5112477;28;20577;-67
2023/09/21 07:12:04;;;;;;;5.75;2.35;;;;;;;24.69;48.20;99896.22;5112389;28;20047;-67
2023/09/21 07:14:36;;;;;;;4.30;2.20;;;;;;;24.68;48.35;99882.78;5113494;28;20446;-67
2023/09/21 07:17:06;;;;;;;3.92;2.00;;;;;;;24.67;48.37;99881.13;5114238;28;20047;-67
2023/09/21 07:19:36;;;;;;;5.25;2.38;;;;;;;24.70;48.22;99897.06;5113554;28;20508;-68
2023/09/21 07:22:05;;;;;;;4.35;2.30;;;;;;;24.67;48.27;99892.84;5113572;28;20084;-67
2023/09/21 07:24:33;;;;;;;3.95;2.38;;;;;;;24.72;48.21;99900.47;5113296;28;20047;-68
2023/09/21 07:27:02;;;;;;;4.82;2.38;;;;;;;24.71;48.31;99904.25;5113288;28;20087;-68
2023/09/21 07:29:31;;;;;;;3.97;2.30;;;;;;;24.72;48.23;99895.88;5113559;28;20051;-68
2023/09/21 07:32:01;;;;;;;4.70;2.00;;;;;;;24.72;48.23;99895.88;5113253;28;20122;-68
2023/09/21 07:34:32;;;;;;;4.82;2.42;;;;;;;24.72;48.36;99890.41;5113462;28;20463;-68
2023/09/21 07:37:00;;;;;;;5.32;2.63;;;;;;;24.72;48.37;99889.56;5113024;28;20484;-68
2023/09/21 07:39:29;;;;;;;4.35;2.40;;;;;;;24.72;48.26;99887.69;5113204;28;20040;-67
2023/09/21 07:41:57;;;;;;;4.47;2.05;;;;;;;24.73;48.66;99896.72;5113476;28;20142;-67
2023/09/21 07:44:26;;;;;;;5.30;2.20;;;;;;;24.73;48.78;99896.72;5113371;28;20134;-67
2023/09/21 07:46:56;;;;;;;4.10;2.40;;;;;;;24.73;48.66;99896.72;5113284;28;20089;-67
2023/09/21 07:49:26;;;;;;;4.95;2.38;;;;;;;24.74;48.62;99909.31;5112981;28;20048;-67
2023/09/21 07:51:56;;;;;;;5.40;2.33;;;;;;;24.74;48.49;99904.69;5112896;28;20101;-68
2023/09/21 07:54:24;;;;;;;3.15;1.90;;;;;;;24.75;48.64;99905.53;5113101;28;20047;-67
2023/09/21 07:56:52;;;;;;;4.63;2.08;;;;;;;24.75;48.66;99905.53;5095235;28;20056;-67
2023/09/21 07:59:21;;;;;;;4.47;2.38;;;;;;;24.73;48.54;99903.00;5113194;28;20050;-67
2023/09/21 08:01:51;;;;;;;4.55;2.30;;;;;;;24.74;48.97;99903.84;5112909;28;20047;-67
2023/09/21 08:04:20;;;;;;;4.93;2.00;;;;;;;24.74;48.79;99906.59;5112723;28;20054;-67
2023/09/21 08:06:50;;;;;;;3.42;2.25;;;;;;;24.74;48.77;99909.31;5113179;28;20055;-68
2023/09/21 08:09:18;;;;;;;3.55;2.00;;;;;;;24.73;48.69;99908.47;5112638;28;20386;-68
2023/09/21 08:12:00;;;;;;;4.47;2.00;;;;;;;24.72;48.99;99912.25;5096834;28;20054;-68
2023/09/21 08:14:29;;;;;;;4.65;2.15;;;;;;;24.73;48.50;99918.53;5112587;28;20280;-68
2023/09/21 08:16:59;;;;;;;3.53;1.92;;;;;;;24.73;48.91;99930.28;5112321;28;20530;-68
2023/09/21 08:19:27;;;;;;;3.75;2.08;;;;;;;24.73;48.69;99938.47;5094359;28;20047;-68
2023/09/21 08:22:01;;;;;;;4.13;2.10;;;;;;;24.72;48.63;99933.22;5112320;28;20476;-67
2023/09/21 08:24:29;;;;;;;3.67;2.20;;;;;;;24.73;48.51;99932.16;5112437;28;20549;-68
2023/09/21 08:26:59;;;;;;;4.30;2.17;;;;;;;24.73;48.86;99926.72;5112427;28;20047;-67
2023/09/21 08:29:28;;;;;;;6.22;2.38;;;;;;;24.74;48.80;99909.31;5112293;28;20390;-67
2023/09/21 08:31:56;;;;;;;4.38;2.00;;;;;;;24.73;49.12;99915.81;5112620;28;20104;-68
2023/09/21 08:34:25;;;;;;;4.78;2.20;;;;;;;24.72;48.94;99923.16;5112409;28;20060;-66
2023/09/21 08:36:53;;;;;;;4.10;2.00;;;;;;;24.73;48.87;99935.75;5112427;28;20132;-67
2023/09/21 08:39:23;;;;;;;4.72;2.38;;;;;;;24.73;48.81;99940.34;5112268;28;20051;-67
2023/09/21 08:41:52;;;;;;;5.63;2.22;;;;;;;24.74;48.71;99947.50;5112388;28;20829;-67
2023/09/21 08:44:21;;;;;;;5.53;2.50;;;;;;;24.72;49.13;99946.84;5112067;28;20122;-66
2023/09/21 08:46:50;;;;;;;4.55;2.20;;;;;;;24.73;49.27;99954.00;5112553;28;20052;-66
2023/09/21 08:49:19;;;;;;;4.60;2.08;;;;;;;24.72;49.30;99944.13;5112219;28;20411;-68
2023/09/21 08:51:48;;;;;;;4.53;2.30;;;;;;;24.72;49.25;99955.03;5112252;28;20051;-68
2023/09/21 08:54:17;;;;;;;3.90;2.20;;;;;;;24.73;49.01;99948.53;5111996;28;20040;-68
2023/09/21 08:56:48;;;;;;;4.47;2.28;;;;;;;24.73;48.92;99949.38;5112020;28;20139;-67
2023/09/21 08:59:20;;;;;;;4.72;2.20;;;;;;;24.72;48.96;99938.66;5112109;28;20048;-66
2023/09/21 09:01:49;;;;;;;3.83;2.05;;;;;;;24.71;49.09;99931.53;5112258;28;20533;-67
2023/09/21 09:04:19;;;;;;;3.33;1.90;;;;;;;24.73;49.00;99932.16;5112206;28;20047;-67
2023/09/21 09:06:49;;;;;;;4.82;2.20;;;;;;;24.71;49.27;99920.63;5112247;28;20392;-67
2023/09/21 09:09:19;;;;;;;4.40;2.10;;;;;;;24.72;49.11;99914.13;5111808;28;20101;-68
2023/09/21 09:11:50;;;;;;;3.70;2.03;;;;;;;24.73;49.48;99918.53;5111761;28;20156;-66
2023/09/21 09:14:20;;;;;;;4.75;1.98;;;;;;;24.73;49.31;99907.63;5111740;28;20480;-67
2023/09/21 09:16:49;;;;;;;5.22;2.33;;;;;;;24.73;49.37;99907.63;5112042;28;20056;-67
2023/09/21 09:19:18;;;;;;;5.22;2.30;;;;;;;24.74;49.57;99899.25;5112010;28;20126;-66
2023/09/21 09:21:48;;;;;;;3.47;2.13;;;;;;;24.75;49.44;99908.28;5116344;28;20052;-67
2023/09/21 09:24:16;;;;;;;4.72;2.20;;;;;;;24.75;49.77;99906.38;5115853;28;20075;-66
2023/09/21 09:26:44;;;;;;;4.53;2.10;;;;;;;24.74;49.99;99892.94;5115965;28;20047;-67
2023/09/21 09:29:15;;;;;;;4.78;2.20;;;;;;;24.76;50.21;99885.41;5115715;28;20124;-67
2023/09/21 09:31:44;;;;;;;4.68;2.55;;;;;;;24.76;50.17;99883.53;5115834;28;20044;-67
2023/09/21 09:34:17;;;;;;;4.72;2.30;;;;;;;24.77;49.90;99877.03;5115856;28;20135;-67
2023/09/21 09:36:48;;;;;;;3.97;2.35;;;;;;;24.78;50.07;99875.16;5115558;28;20059;-67
2023/09/21 09:39:21;;;;;;;4.60;2.33;;;;;;;24.78;50.39;99872.41;5115636;28;20181;-67
2023/09/21 09:41:53;;;;;;;4.25;2.20;;;;;;;24.80;50.19;99864.88;5115567;28;20066;-67
2023/09/21 09:44:25;;;;;;;4.68;2.25;;;;;;;24.78;50.44;99866.97;5115430;28;20052;-67
2023/09/21 09:46:57;;;;;;;3.47;1.98;;;;;;;24.80;50.38;99871.22;5115276;28;20047;-67
2023/09/21 09:49:29;;;;;;;4.60;2.10;;;;;;;24.81;50.28;99859.25;5115652;28;20039;-68
2023/09/21 09:52:00;;;;;;;3.55;2.08;;;;;;;24.82;50.41;99857.38;5115263;28;20082;-67
2023/09/21 09:54:30;;;;;;;5.22;2.13;;;;;;;24.82;50.38;99857.38;5115210;28;20097;-67
2023/09/21 09:57:01;;;;;;;7.28;2.00;;;;;;;24.83;50.49;99861.78;5115109;28;20052;-67
2023/09/21 09:59:35;;;;;;;4.72;2.28;;;;;;;24.86;50.27;99863.28;5115037;28;20469;-67
2023/09/21 10:02:07;;;;;;;4.50;2.33;;;;;;;24.87;50.58;99860.34;5115272;28;20381;-68
2023/09/21 10:04:39;;;;;;;5.50;2.30;;;;;;;24.90;50.31;99870.03;5115026;28;20043;-68
2023/09/21 10:07:08;;;;;;;3.72;1.90;;;;;;;24.91;50.25;99860.81;5115190;28;20047;-68
2023/09/21 10:09:38;;;;;;;4.97;2.10;;;;;;;24.92;50.13;99867.97;5114901;28;20139;-68
2023/09/21 10:12:07;;;;;;;3.50;1.98;;;;;;;24.92;50.13;99863.34;5114548;28;20104;-68
2023/09/21 10:14:43;;;;;;;3.55;2.20;;;;;;;24.91;49.92;99861.66;5114965;28;20047;-67
2023/09/21 10:17:14;;;;;;;3.72;2.00;;;;;;;24.94;49.82;99860.44;5114926;28;20051;-67
2023/09/21 10:19:43;;;;;;;4.03;2.10;;;;;;;24.94;49.95;99861.28;5114904;28;20139;-68
2023/09/21 10:22:23;;;;;;;3.88;2.17;;;;;;;24.96;50.29;99864.63;5114855;28;20119;-68
2023/09/21 10:24:58;;;;;;;3.67;2.03;;;;;;;24.98;50.26;99858.97;5114694;28;20051;-68
2023/09/21 10:27:28;;;;;;;3.25;2.03;;;;;;;24.97;50.15;99844.50;5114841;28;20484;-68
2023/09/21 10:30:09;;;;;;;3.75;2.00;;;;;;;25.00;50.11;99841.41;5114392;28;20097;-67
2023/09/21 10:32:47;;;;;;;5.45;2.28;;;;;;;25.04;49.84;99839.16;5114488;28;20127;-68
2023/09/21 10:35:42;;;;;;;3.42;2.00;;;;;;;25.03;50.09;99830.13;5114361;28;20047;-67
2023/09/21 10:38:14;;;;;;;3.67;2.10;;;;;;;25.06;50.18;99832.44;5114646;28;20051;-67
2023/09/21 10:40:43;;;;;;;4.35;2.10;;;;;;;25.09;50.11;99832.06;5114420;28;20039;-67
2023/09/21 10:43:43;;;;;;;4.35;2.00;;;;;;;25.15;50.14;99829.59;5114396;28;20047;-67
2023/09/21 10:46:21;;;;;;;4.05;1.98;;;;;;;25.16;50.06;99826.66;5114192;28;20173;-67
2023/09/21 10:48:58;;;;;;;4.20;2.40;;;;;;;25.19;50.14;99820.81;5114367;28;20047;-67
2023/09/21 10:51:28;;;;;;;4.47;1.80;;;;;;;25.21;50.12;99817.91;5113916;28;20505;-67
2023/09/21 10:53:58;;;;;;;4.32;1.90;;;;;;;25.24;49.85;99817.50;5114048;28;20071;-68
2023/09/21 10:56:27;;;;;;;4.85;2.08;;;;;;;25.26;49.97;99804.47;5114101;28;20050;-66
2023/09/21 10:58:55;;;;;;;4.15;1.98;;;;;;;25.27;50.01;99795.25;5114402;28;20078;-66
2023/09/21 11:01:26;;;;;;;4.00;2.20;;;;;;;25.28;50.11;99803.22;5114266;28;20048;-68
2023/09/21 11:03:54;;;;;;;4.28;2.33;;;;;;;25.32;49.91;99803.69;5114154;28;20070;-67
2023/09/21 11:06:25;;;;;;;3.10;1.83;;;;;;;25.33;50.15;99789.00;5113851;28;20116;-68
2023/09/21 11:08:54;;;;;;;4.38;2.17;;;;;;;25.35;49.93;99792.38;5114327;28;20054;-68
2023/09/21 11:11:25;;;;;;;4.25;2.40;;;;;;;25.36;49.94;99778.53;5114042;28;20446;-68
2023/09/21 11:13:53;;;;;;;4.47;2.10;;;;;;;25.37;50.00;99773.91;5113902;28;20142;-68
2023/09/21 11:16:22;;;;;;;5.05;2.00;;;;;;;25.41;49.92;99769.75;5113880;28;20044;-66
2023/09/21 11:18:55;;;;;;;3.60;2.10;;;;;;;25.43;49.74;99767.66;5113541;28;20063;-67
2023/09/21 11:21:24;;;;;;;3.53;2.17;;;;;;;25.47;49.75;99768.09;5113967;28;20404;-67
2023/09/21 11:23:53;;;;;;;3.97;2.08;;;;;;;25.53;49.62;99764.56;5113716;28;20060;-67
2023/09/21 11:26:23;;;;;;;4.90;2.33;;;;;;;25.57;49.59;99758.50;5113281;28;20086;-67
2023/09/21 11:28:58;;;;;;;4.53;2.50;;;;;;;25.59;49.58;99752.84;5113588;28;20389;-66
2023/09/21 11:31:28;;;;;;;4.63;2.20;;;;;;;25.64;49.79;99745.72;5113356;28;20100;-66
2023/09/21 11:34:06;;;;;;;5.35;2.20;;;;;;;25.69;49.65;99751.44;5113558;28;20408;-66
2023/09/21 11:36:36;;;;;;;4.72;2.15;;;;;;;25.74;49.57;99742.66;5113399;28;20040;-66
2023/09/21 11:39:08;;;;;;;3.85;2.15;;;;;;;25.80;49.28;99738.28;5113160;28;20393;-66
2023/09/21 11:41:37;;;;;;;4.10;2.28;;;;;;;25.84;49.23;99725.88;5112952;28;20063;-66
2023/09/21 11:44:06;;;;;;;4.30;2.10;;;;;;;25.89;49.41;99734.31;5112413;28;20044;-66
2023/09/21 11:46:41;;;;;;;4.53;2.15;;;;;;;25.93;49.38;99720.03;5113132;28;20108;-68
2023/09/21 11:49:13;;;;;;;3.83;2.33;;;;;;;25.99;49.02;99718.41;5112804;28;20051;-68